sensor_id;sensor_type;location;lat;lon;timestamp;temperature;humidity
285;DHT22;127;48.770;9.212;2023-05-10T00:00:31;13.10;1.00
285;DHT22;127;48.770;9.212;2023-05-10T00:03:03;13.10;1.00
285;DHT22;127;48.770;9.212;2023-05-10T00:05:35;13.10;1.00
285;DHT22;127;48.770;9.212;2023-05-10T00:08:05;13.10;1.00
285;DHT22;127;48.770;9.212;2023-05-10T00:10:33;13.10;1.00
285;DHT22;127;48.770;9.212;2023-05-10T00:13:04;13.10;1.00
285;DHT22;127;48.770;9.212;2023-05-10T00:15:38;13.20;1.00
285;DHT22;127;48.770;9.212;2023-05-10T00:18:07;13.20;1.00
285;DHT22;127;48.770;9.212;2023-05-10T00:20:38;13.10;1.00
285;DHT22;127;48.770;9.212;2023-05-10T00:23:12;13.00;1.00
285;DHT22;127;48.770;9.212;2023-05-10T00:25:40;12.90;1.00
285;DHT22;127;48.770;9.212;2023-05-10T00:28:09;12.90;1.00
285;DHT22;127;48.770;9.212;2023-05-10T00:30:38;12.90;1.00
285;DHT22;127;48.770;9.212;2023-05-10T00:33:06;12.80;1.00
285;DHT22;127;48.770;9.212;2023-05-10T00:35:39;12.90;1.00
285;DHT22;127;48.770;9.212;2023-05-10T00:38:09;12.70;1.00
285;DHT22;127;48.770;9.212;2023-05-10T00:40:44;12.70;1.00
285;DHT22;127;48.770;9.212;2023-05-10T00:43:13;12.70;1.00
285;DHT22;127;48.770;9.212;2023-05-10T00:45:42;12.70;1.00
285;DHT22;127;48.770;9.212;2023-05-10T00:48:11;12.70;1.00
285;DHT22;127;48.770;9.212;2023-05-10T00:50:47;12.70;1.00
285;DHT22;127;48.770;9.212;2023-05-10T00:53:24;12.60;1.00
285;DHT22;127;48.770;9.212;2023-05-10T00:55:55;12.60;1.00
285;DHT22;127;48.770;9.212;2023-05-10T00:58:25;12.50;1.00
285;DHT22;127;48.770;9.212;2023-05-10T01:00:56;12.50;1.00
285;DHT22;127;48.770;9.212;2023-05-10T01:03:26;12.50;1.00
285;DHT22;127;48.770;9.212;2023-05-10T01:05:57;12.40;1.00
285;DHT22;127;48.770;9.212;2023-05-10T01:08:30;12.40;1.00
285;DHT22;127;48.770;9.212;2023-05-10T01:10:59;12.40;1.00
285;DHT22;127;48.770;9.212;2023-05-10T01:13:32;12.40;1.00
285;DHT22;127;48.770;9.212;2023-05-10T01:16:04;12.40;1.00
285;DHT22;127;48.770;9.212;2023-05-10T01:18:34;12.40;1.00
285;DHT22;127;48.770;9.212;2023-05-10T01:21:15;12.40;1.00
285;DHT22;127;48.770;9.212;2023-05-10T01:24:12;12.30;1.00
285;DHT22;127;48.770;9.212;2023-05-10T01:27:14;12.30;1.00
285;DHT22;127;48.770;9.212;2023-05-10T01:30:23;12.40;1.00
285;DHT22;127;48.770;9.212;2023-05-10T01:33:02;12.30;1.00
285;DHT22;127;48.770;9.212;2023-05-10T01:35:39;12.20;1.00
285;DHT22;127;48.770;9.212;2023-05-10T01:38:15;12.20;1.00
285;DHT22;127;48.770;9.212;2023-05-10T01:40:55;12.20;1.00
285;DHT22;127;48.770;9.212;2023-05-10T01:43:32;12.20;1.00
285;DHT22;127;48.770;9.212;2023-05-10T01:46:05;12.10;1.00
285;DHT22;127;48.770;9.212;2023-05-10T01:48:44;12.20;1.00
285;DHT22;127;48.770;9.212;2023-05-10T01:51:31;12.20;1.00
285;DHT22;127;48.770;9.212;2023-05-10T01:54:05;12.10;1.00
285;DHT22;127;48.770;9.212;2023-05-10T01:56:38;12.20;1.00
285;DHT22;127;48.770;9.212;2023-05-10T01:59:15;12.20;1.00
285;DHT22;127;48.770;9.212;2023-05-10T02:01:45;12.10;1.00
285;DHT22;127;48.770;9.212;2023-05-10T02:04:25;12.10;1.00
285;DHT22;127;48.770;9.212;2023-05-10T02:06:55;12.10;1.00
285;DHT22;127;48.770;9.212;2023-05-10T02:09:32;12.10;1.00
285;DHT22;127;48.770;9.212;2023-05-10T02:12:05;12.10;1.00
285;DHT22;127;48.770;9.212;2023-05-10T02:14:38;12.10;1.00
285;DHT22;127;48.770;9.212;2023-05-10T02:17:09;12.10;1.00
285;DHT22;127;48.770;9.212;2023-05-10T02:19:42;12.00;1.00
285;DHT22;127;48.770;9.212;2023-05-10T02:22:12;12.00;1.00
285;DHT22;127;48.770;9.212;2023-05-10T02:24:41;12.00;1.00
285;DHT22;127;48.770;9.212;2023-05-10T02:27:10;12.00;1.00
285;DHT22;127;48.770;9.212;2023-05-10T02:29:40;11.90;1.00
285;DHT22;127;48.770;9.212;2023-05-10T02:32:10;11.90;1.00
285;DHT22;127;48.770;9.212;2023-05-10T02:34:51;11.80;1.00
285;DHT22;127;48.770;9.212;2023-05-10T02:37:21;11.80;1.00
285;DHT22;127;48.770;9.212;2023-05-10T02:39:51;11.80;1.00
285;DHT22;127;48.770;9.212;2023-05-10T02:42:26;11.80;1.00
285;DHT22;127;48.770;9.212;2023-05-10T02:45:00;11.70;1.00
285;DHT22;127;48.770;9.212;2023-05-10T02:47:33;11.80;1.00
285;DHT22;127;48.770;9.212;2023-05-10T02:50:06;11.80;1.00
285;DHT22;127;48.770;9.212;2023-05-10T02:52:39;11.90;1.00
285;DHT22;127;48.770;9.212;2023-05-10T02:55:12;11.90;1.00
285;DHT22;127;48.770;9.212;2023-05-10T02:57:48;11.90;1.00
285;DHT22;127;48.770;9.212;2023-05-10T03:00:18;11.80;1.00
285;DHT22;127;48.770;9.212;2023-05-10T03:02:47;11.80;1.00
285;DHT22;127;48.770;9.212;2023-05-10T03:05:18;11.80;1.00
285;DHT22;127;48.770;9.212;2023-05-10T03:07:52;11.80;1.00
285;DHT22;127;48.770;9.212;2023-05-10T03:10:27;11.90;1.00
285;DHT22;127;48.770;9.212;2023-05-10T03:13:07;11.80;1.00
285;DHT22;127;48.770;9.212;2023-05-10T03:15:45;11.80;1.00
285;DHT22;127;48.770;9.212;2023-05-10T03:18:20;11.90;1.00
285;DHT22;127;48.770;9.212;2023-05-10T03:20:59;11.90;1.00
285;DHT22;127;48.770;9.212;2023-05-10T03:23:35;11.90;1.00
285;DHT22;127;48.770;9.212;2023-05-10T03:26:08;11.90;1.00
285;DHT22;127;48.770;9.212;2023-05-10T03:28:41;11.90;1.00
285;DHT22;127;48.770;9.212;2023-05-10T03:31:12;12.00;1.00
285;DHT22;127;48.770;9.212;2023-05-10T03:33:53;11.90;1.00
285;DHT22;127;48.770;9.212;2023-05-10T03:36:24;11.90;1.00
285;DHT22;127;48.770;9.212;2023-05-10T03:38:53;11.90;1.00
285;DHT22;127;48.770;9.212;2023-05-10T03:41:22;11.90;1.00
285;DHT22;127;48.770;9.212;2023-05-10T03:43:50;11.90;1.00
285;DHT22;127;48.770;9.212;2023-05-10T03:46:19;11.90;1.00
285;DHT22;127;48.770;9.212;2023-05-10T03:48:48;11.90;1.00
285;DHT22;127;48.770;9.212;2023-05-10T03:51:19;11.90;1.00
285;DHT22;127;48.770;9.212;2023-05-10T03:53:52;11.90;1.00
285;DHT22;127;48.770;9.212;2023-05-10T03:56:25;11.90;1.00
285;DHT22;127;48.770;9.212;2023-05-10T03:58:53;11.90;1.00
285;DHT22;127;48.770;9.212;2023-05-10T04:01:22;11.90;1.00
285;DHT22;127;48.770;9.212;2023-05-10T04:03:51;11.90;1.00
285;DHT22;127;48.770;9.212;2023-05-10T04:06:19;11.80;1.00
285;DHT22;127;48.770;9.212;2023-05-10T04:08:48;11.80;1.00
285;DHT22;127;48.770;9.212;2023-05-10T04:11:24;11.80;1.00
285;DHT22;127;48.770;9.212;2023-05-10T04:14:03;11.90;1.00
285;DHT22;127;48.770;9.212;2023-05-10T04:16:35;11.80;1.00
285;DHT22;127;48.770;9.212;2023-05-10T04:19:05;11.80;1.00
285;DHT22;127;48.770;9.212;2023-05-10T04:21:34;11.90;1.00
285;DHT22;127;48.770;9.212;2023-05-10T04:24:03;11.90;1.00
285;DHT22;127;48.770;9.212;2023-05-10T04:26:34;11.90;1.00
285;DHT22;127;48.770;9.212;2023-05-10T04:29:06;11.90;1.00
285;DHT22;127;48.770;9.212;2023-05-10T04:31:35;11.90;1.00
285;DHT22;127;48.770;9.212;2023-05-10T04:34:04;11.90;1.00
285;DHT22;127;48.770;9.212;2023-05-10T04:36:32;11.90;1.00
285;DHT22;127;48.770;9.212;2023-05-10T04:39:02;12.00;1.00
285;DHT22;127;48.770;9.212;2023-05-10T04:41:34;12.00;1.00
285;DHT22;127;48.770;9.212;2023-05-10T04:44:05;12.10;1.00
285;DHT22;127;48.770;9.212;2023-05-10T04:46:37;12.10;1.00
285;DHT22;127;48.770;9.212;2023-05-10T04:49:06;12.10;1.00
285;DHT22;127;48.770;9.212;2023-05-10T04:51:35;12.10;1.00
285;DHT22;127;48.770;9.212;2023-05-10T04:54:06;12.20;1.00
285;DHT22;127;48.770;9.212;2023-05-10T04:56:40;12.10;1.00
285;DHT22;127;48.770;9.212;2023-05-10T04:59:09;12.20;1.00
285;DHT22;127;48.770;9.212;2023-05-10T05:01:37;12.30;1.00
285;DHT22;127;48.770;9.212;2023-05-10T05:04:06;12.40;1.00
285;DHT22;127;48.770;9.212;2023-05-10T05:06:41;12.40;1.00
285;DHT22;127;48.770;9.212;2023-05-10T05:09:12;12.40;1.00
285;DHT22;127;48.770;9.212;2023-05-10T05:11:43;12.50;1.00
285;DHT22;127;48.770;9.212;2023-05-10T05:14:12;12.50;1.00
285;DHT22;127;48.770;9.212;2023-05-10T05:16:40;12.60;1.00
285;DHT22;127;48.770;9.212;2023-05-10T05:19:09;12.60;99.90
285;DHT22;127;48.770;9.212;2023-05-10T05:21:38;12.60;99.90
285;DHT22;127;48.770;9.212;2023-05-10T05:24:07;12.70;99.90
285;DHT22;127;48.770;9.212;2023-05-10T05:26:36;12.70;99.90
285;DHT22;127;48.770;9.212;2023-05-10T05:29:09;12.90;99.90
285;DHT22;127;48.770;9.212;2023-05-10T05:31:38;13.00;99.90
285;DHT22;127;48.770;9.212;2023-05-10T05:34:06;13.00;99.90
285;DHT22;127;48.770;9.212;2023-05-10T05:36:43;13.00;99.90
285;DHT22;127;48.770;9.212;2023-05-10T05:39:16;13.10;99.90
285;DHT22;127;48.770;9.212;2023-05-10T05:41:45;13.20;99.90
285;DHT22;127;48.770;9.212;2023-05-10T05:47:26;13.30;99.90
285;DHT22;127;48.770;9.212;2023-05-10T05:49:54;13.40;99.90
285;DHT22;127;48.770;9.212;2023-05-10T05:52:25;13.40;99.90
285;DHT22;127;48.770;9.212;2023-05-10T05:54:56;13.30;99.90
285;DHT22;127;48.770;9.212;2023-05-10T05:57:27;13.30;99.90
285;DHT22;127;48.770;9.212;2023-05-10T05:59:55;13.40;99.90
285;DHT22;127;48.770;9.212;2023-05-10T06:02:27;13.50;99.90
285;DHT22;127;48.770;9.212;2023-05-10T06:04:56;13.50;99.90
285;DHT22;127;48.770;9.212;2023-05-10T06:07:25;13.40;99.90
285;DHT22;127;48.770;9.212;2023-05-10T06:09:53;13.40;99.90
285;DHT22;127;48.770;9.212;2023-05-10T06:12:22;13.40;99.90
285;DHT22;127;48.770;9.212;2023-05-10T06:14:52;13.50;99.90
285;DHT22;127;48.770;9.212;2023-05-10T06:17:23;13.50;99.90
285;DHT22;127;48.770;9.212;2023-05-10T06:19:55;13.70;99.90
285;DHT22;127;48.770;9.212;2023-05-10T06:22:24;13.80;99.90
285;DHT22;127;48.770;9.212;2023-05-10T06:24:53;13.90;99.90
285;DHT22;127;48.770;9.212;2023-05-10T06:27:24;14.00;99.90
285;DHT22;127;48.770;9.212;2023-05-10T06:29:56;14.00;99.90
285;DHT22;127;48.770;9.212;2023-05-10T06:32:30;14.00;99.90
285;DHT22;127;48.770;9.212;2023-05-10T06:35:05;14.00;99.90
285;DHT22;127;48.770;9.212;2023-05-10T06:37:36;14.00;99.90
285;DHT22;127;48.770;9.212;2023-05-10T06:40:07;13.90;99.90
285;DHT22;127;48.770;9.212;2023-05-10T06:42:37;13.90;99.90
285;DHT22;127;48.770;9.212;2023-05-10T06:45:14;13.80;99.90
285;DHT22;127;48.770;9.212;2023-05-10T06:47:48;13.60;99.90
285;DHT22;127;48.770;9.212;2023-05-10T06:50:24;13.40;99.90
285;DHT22;127;48.770;9.212;2023-05-10T06:52:53;13.40;99.90
285;DHT22;127;48.770;9.212;2023-05-10T06:55:24;13.40;99.90
285;DHT22;127;48.770;9.212;2023-05-10T06:57:52;13.40;99.90
285;DHT22;127;48.770;9.212;2023-05-10T07:00:21;13.30;99.90
285;DHT22;127;48.770;9.212;2023-05-10T07:02:51;13.40;99.90
285;DHT22;127;48.770;9.212;2023-05-10T07:05:30;13.30;99.90
285;DHT22;127;48.770;9.212;2023-05-10T07:07:59;13.10;99.90
285;DHT22;127;48.770;9.212;2023-05-10T07:10:40;13.20;99.90
285;DHT22;127;48.770;9.212;2023-05-10T07:13:22;13.20;99.90
285;DHT22;127;48.770;9.212;2023-05-10T07:16:00;13.20;99.90
285;DHT22;127;48.770;9.212;2023-05-10T07:18:32;13.50;99.90
285;DHT22;127;48.770;9.212;2023-05-10T07:21:08;13.70;99.90
285;DHT22;127;48.770;9.212;2023-05-10T07:23:39;13.80;99.90
285;DHT22;127;48.770;9.212;2023-05-10T07:26:13;14.10;99.90
285;DHT22;127;48.770;9.212;2023-05-10T07:28:42;14.40;99.90
285;DHT22;127;48.770;9.212;2023-05-10T07:31:13;14.50;99.90
285;DHT22;127;48.770;9.212;2023-05-10T07:33:51;14.60;99.90
285;DHT22;127;48.770;9.212;2023-05-10T07:36:23;14.70;99.90
285;DHT22;127;48.770;9.212;2023-05-10T07:38:52;14.80;99.90
285;DHT22;127;48.770;9.212;2023-05-10T07:41:22;14.70;99.90
285;DHT22;127;48.770;9.212;2023-05-10T07:43:53;14.90;99.90
285;DHT22;127;48.770;9.212;2023-05-10T07:46:24;15.20;99.90
285;DHT22;127;48.770;9.212;2023-05-10T07:48:59;15.10;99.90
285;DHT22;127;48.770;9.212;2023-05-10T07:51:37;15.30;99.90
285;DHT22;127;48.770;9.212;2023-05-10T07:54:09;15.20;99.90
285;DHT22;127;48.770;9.212;2023-05-10T07:56:44;15.10;99.90
285;DHT22;127;48.770;9.212;2023-05-10T07:59:27;15.20;99.90
285;DHT22;127;48.770;9.212;2023-05-10T08:01:56;15.50;99.90
285;DHT22;127;48.770;9.212;2023-05-10T08:04:26;15.50;99.90
285;DHT22;127;48.770;9.212;2023-05-10T08:07:15;15.50;99.90
285;DHT22;127;48.770;9.212;2023-05-10T08:09:44;15.60;99.90
285;DHT22;127;48.770;9.212;2023-05-10T08:12:13;15.60;99.90
285;DHT22;127;48.770;9.212;2023-05-10T08:14:46;15.80;99.90
285;DHT22;127;48.770;9.212;2023-05-10T08:17:19;15.60;99.90
285;DHT22;127;48.770;9.212;2023-05-10T08:19:51;15.60;99.90
285;DHT22;127;48.770;9.212;2023-05-10T08:29:01;15.50;99.90
285;DHT22;127;48.770;9.212;2023-05-10T08:31:30;15.80;99.90
285;DHT22;127;48.770;9.212;2023-05-10T08:33:59;15.80;99.90
285;DHT22;127;48.770;9.212;2023-05-10T08:36:34;15.80;99.90
285;DHT22;127;48.770;9.212;2023-05-10T08:39:03;15.50;99.90
285;DHT22;127;48.770;9.212;2023-05-10T08:41:47;15.60;99.90
285;DHT22;127;48.770;9.212;2023-05-10T08:44:26;15.70;99.90
285;DHT22;127;48.770;9.212;2023-05-10T08:47:06;15.90;99.90
285;DHT22;127;48.770;9.212;2023-05-10T08:49:42;16.10;99.90
285;DHT22;127;48.770;9.212;2023-05-10T08:52:18;15.90;99.90
285;DHT22;127;48.770;9.212;2023-05-10T08:54:47;15.90;99.90
285;DHT22;127;48.770;9.212;2023-05-10T08:57:20;15.90;99.90
285;DHT22;127;48.770;9.212;2023-05-10T09:00:11;15.70;99.90
285;DHT22;127;48.770;9.212;2023-05-10T09:02:46;15.80;99.90
285;DHT22;127;48.770;9.212;2023-05-10T09:05:16;15.70;99.90
285;DHT22;127;48.770;9.212;2023-05-10T09:07:45;15.70;99.90
285;DHT22;127;48.770;9.212;2023-05-10T09:10:36;16.00;99.90
285;DHT22;127;48.770;9.212;2023-05-10T09:13:47;16.30;99.90
285;DHT22;127;48.770;9.212;2023-05-10T09:16:51;16.70;99.90
285;DHT22;127;48.770;9.212;2023-05-10T09:19:30;17.00;99.90
285;DHT22;127;48.770;9.212;2023-05-10T09:22:08;17.00;99.90
285;DHT22;127;48.770;9.212;2023-05-10T09:24:42;16.70;99.90
285;DHT22;127;48.770;9.212;2023-05-10T09:27:17;16.70;99.90
285;DHT22;127;48.770;9.212;2023-05-10T09:29:58;16.70;99.90
285;DHT22;127;48.770;9.212;2023-05-10T09:35:34;15.90;99.90
285;DHT22;127;48.770;9.212;2023-05-10T09:39:14;15.90;99.90
285;DHT22;127;48.770;9.212;2023-05-10T09:41:16;15.90;99.90
285;DHT22;127;48.770;9.212;2023-05-10T09:43:49;15.80;99.90
285;DHT22;127;48.770;9.212;2023-05-10T09:46:51;15.90;99.90
285;DHT22;127;48.770;9.212;2023-05-10T09:49:24;16.00;99.90
285;DHT22;127;48.770;9.212;2023-05-10T09:52:20;16.20;99.90
285;DHT22;127;48.770;9.212;2023-05-10T09:54:59;16.00;99.90
285;DHT22;127;48.770;9.212;2023-05-10T09:57:33;16.30;99.90
285;DHT22;127;48.770;9.212;2023-05-10T10:01:39;16.30;99.90
285;DHT22;127;48.770;9.212;2023-05-10T10:03:33;16.30;99.90
285;DHT22;127;48.770;9.212;2023-05-10T10:06:05;16.90;99.90
285;DHT22;127;48.770;9.212;2023-05-10T10:09:02;17.00;99.90
285;DHT22;127;48.770;9.212;2023-05-10T10:11:34;17.20;99.90
285;DHT22;127;48.770;9.212;2023-05-10T10:14:04;17.80;99.90
285;DHT22;127;48.770;9.212;2023-05-10T10:16:33;18.40;99.90
285;DHT22;127;48.770;9.212;2023-05-10T10:19:11;18.70;99.90
285;DHT22;127;48.770;9.212;2023-05-10T10:21:40;18.40;99.90
285;DHT22;127;48.770;9.212;2023-05-10T10:24:14;18.50;99.90
285;DHT22;127;48.770;9.212;2023-05-10T10:26:44;18.10;99.90
285;DHT22;127;48.770;9.212;2023-05-10T10:29:20;17.70;99.90
285;DHT22;127;48.770;9.212;2023-05-10T10:31:57;17.70;99.90
285;DHT22;127;48.770;9.212;2023-05-10T10:34:42;18.10;99.90
285;DHT22;127;48.770;9.212;2023-05-10T10:37:10;18.00;99.90
285;DHT22;127;48.770;9.212;2023-05-10T10:40:02;18.10;99.90
285;DHT22;127;48.770;9.212;2023-05-10T10:42:53;18.00;99.90
285;DHT22;127;48.770;9.212;2023-05-10T10:45:23;17.90;99.90
285;DHT22;127;48.770;9.212;2023-05-10T10:48:22;17.40;99.90
285;DHT22;127;48.770;9.212;2023-05-10T10:50:57;17.40;99.90
285;DHT22;127;48.770;9.212;2023-05-10T10:53:27;17.30;99.90
285;DHT22;127;48.770;9.212;2023-05-10T10:56:06;17.20;99.90
285;DHT22;127;48.770;9.212;2023-05-10T10:58:49;17.10;99.90
285;DHT22;127;48.770;9.212;2023-05-10T11:01:33;16.60;99.90
285;DHT22;127;48.770;9.212;2023-05-10T11:04:26;16.30;99.90
285;DHT22;127;48.770;9.212;2023-05-10T11:07:17;16.00;99.90
285;DHT22;127;48.770;9.212;2023-05-10T11:09:47;15.70;99.90
285;DHT22;127;48.770;9.212;2023-05-10T11:12:18;15.60;99.90
285;DHT22;127;48.770;9.212;2023-05-10T11:14:50;15.50;99.90
285;DHT22;127;48.770;9.212;2023-05-10T11:17:25;15.30;99.90
285;DHT22;127;48.770;9.212;2023-05-10T11:20:11;15.00;99.90
285;DHT22;127;48.770;9.212;2023-05-10T11:22:51;15.00;99.90
285;DHT22;127;48.770;9.212;2023-05-10T11:25:26;15.10;99.90
285;DHT22;127;48.770;9.212;2023-05-10T11:27:57;15.00;99.90
285;DHT22;127;48.770;9.212;2023-05-10T11:30:35;15.10;99.90
285;DHT22;127;48.770;9.212;2023-05-10T11:33:20;15.20;99.90
285;DHT22;127;48.770;9.212;2023-05-10T11:35:58;15.10;99.90
285;DHT22;127;48.770;9.212;2023-05-10T11:38:26;15.40;99.90
285;DHT22;127;48.770;9.212;2023-05-10T11:40:56;15.50;99.90
285;DHT22;127;48.770;9.212;2023-05-10T11:43:28;15.70;99.90
285;DHT22;127;48.770;9.212;2023-05-10T11:46:00;15.80;99.90
285;DHT22;127;48.770;9.212;2023-05-10T11:48:32;15.90;99.90
285;DHT22;127;48.770;9.212;2023-05-10T11:51:02;15.80;99.90
285;DHT22;127;48.770;9.212;2023-05-10T11:53:32;15.70;99.90
285;DHT22;127;48.770;9.212;2023-05-10T11:56:05;15.50;99.90
285;DHT22;127;48.770;9.212;2023-05-10T11:58:55;15.00;99.90
285;DHT22;127;48.770;9.212;2023-05-10T12:01:33;14.90;99.90
285;DHT22;127;48.770;9.212;2023-05-10T12:04:02;15.10;99.90
285;DHT22;127;48.770;9.212;2023-05-10T12:06:37;15.30;99.90
285;DHT22;127;48.770;9.212;2023-05-10T12:09:10;15.40;99.90
285;DHT22;127;48.770;9.212;2023-05-10T12:11:39;15.60;99.90
285;DHT22;127;48.770;9.212;2023-05-10T12:14:11;15.60;99.90
285;DHT22;127;48.770;9.212;2023-05-10T12:16:43;15.80;99.90
285;DHT22;127;48.770;9.212;2023-05-10T12:19:13;16.10;99.90
285;DHT22;127;48.770;9.212;2023-05-10T12:21:47;16.40;99.90
285;DHT22;127;48.770;9.212;2023-05-10T12:24:19;15.80;99.90
285;DHT22;127;48.770;9.212;2023-05-10T12:26:52;15.40;99.90
285;DHT22;127;48.770;9.212;2023-05-10T12:29:24;15.60;99.90
285;DHT22;127;48.770;9.212;2023-05-10T12:31:53;15.90;99.90
285;DHT22;127;48.770;9.212;2023-05-10T12:34:25;16.40;99.90
285;DHT22;127;48.770;9.212;2023-05-10T12:36:54;16.90;99.90
285;DHT22;127;48.770;9.212;2023-05-10T12:39:23;16.80;99.90
285;DHT22;127;48.770;9.212;2023-05-10T12:41:55;16.90;99.90
285;DHT22;127;48.770;9.212;2023-05-10T12:44:30;16.80;99.90
285;DHT22;127;48.770;9.212;2023-05-10T12:47:00;16.90;99.90
285;DHT22;127;48.770;9.212;2023-05-10T12:49:34;17.00;99.90
285;DHT22;127;48.770;9.212;2023-05-10T12:52:05;16.70;99.90
285;DHT22;127;48.770;9.212;2023-05-10T12:54:34;16.70;99.90
285;DHT22;127;48.770;9.212;2023-05-10T12:57:09;16.70;99.90
285;DHT22;127;48.770;9.212;2023-05-10T12:59:43;16.80;99.90
285;DHT22;127;48.770;9.212;2023-05-10T13:02:15;16.60;99.90
285;DHT22;127;48.770;9.212;2023-05-10T13:04:43;16.20;99.90
285;DHT22;127;48.770;9.212;2023-05-10T13:07:14;16.20;99.90
285;DHT22;127;48.770;9.212;2023-05-10T13:09:45;16.30;99.90
285;DHT22;127;48.770;9.212;2023-05-10T13:12:16;16.10;99.90
285;DHT22;127;48.770;9.212;2023-05-10T13:15:07;16.10;99.90
285;DHT22;127;48.770;9.212;2023-05-10T13:17:37;16.00;99.90
285;DHT22;127;48.770;9.212;2023-05-10T13:20:09;16.00;99.90
285;DHT22;127;48.770;9.212;2023-05-10T13:22:37;15.90;99.90
285;DHT22;127;48.770;9.212;2023-05-10T13:25:10;16.10;99.90
285;DHT22;127;48.770;9.212;2023-05-10T13:27:39;16.30;99.90
285;DHT22;127;48.770;9.212;2023-05-10T13:30:11;16.50;99.90
285;DHT22;127;48.770;9.212;2023-05-10T13:32:40;16.70;99.90
285;DHT22;127;48.770;9.212;2023-05-10T13:35:09;16.90;99.90
285;DHT22;127;48.770;9.212;2023-05-10T13:37:37;16.90;99.90
285;DHT22;127;48.770;9.212;2023-05-10T13:40:10;16.90;99.90
285;DHT22;127;48.770;9.212;2023-05-10T13:45:57;17.20;99.90
285;DHT22;127;48.770;9.212;2023-05-10T13:48:29;17.10;99.90
285;DHT22;127;48.770;9.212;2023-05-10T13:50:59;17.10;99.90
285;DHT22;127;48.770;9.212;2023-05-10T13:53:28;16.80;99.90
285;DHT22;127;48.770;9.212;2023-05-10T13:56:00;16.60;99.90
285;DHT22;127;48.770;9.212;2023-05-10T13:58:29;16.60;99.90
285;DHT22;127;48.770;9.212;2023-05-10T14:01:00;16.80;99.90
285;DHT22;127;48.770;9.212;2023-05-10T14:03:32;17.10;99.90
285;DHT22;127;48.770;9.212;2023-05-10T14:06:01;17.20;99.90
285;DHT22;127;48.770;9.212;2023-05-10T14:08:29;17.30;99.90
285;DHT22;127;48.770;9.212;2023-05-10T14:10:58;17.00;99.90
285;DHT22;127;48.770;9.212;2023-05-10T14:13:27;17.30;99.90
285;DHT22;127;48.770;9.212;2023-05-10T14:15:56;17.40;99.90
285;DHT22;127;48.770;9.212;2023-05-10T14:18:28;17.30;99.90
285;DHT22;127;48.770;9.212;2023-05-10T14:20:57;17.60;99.90
285;DHT22;127;48.770;9.212;2023-05-10T14:23:29;17.60;99.90
285;DHT22;127;48.770;9.212;2023-05-10T14:25:58;16.90;99.90
285;DHT22;127;48.770;9.212;2023-05-10T14:28:27;17.20;99.90
285;DHT22;127;48.770;9.212;2023-05-10T14:31:01;17.50;99.90
285;DHT22;127;48.770;9.212;2023-05-10T14:33:37;17.60;99.90
285;DHT22;127;48.770;9.212;2023-05-10T14:36:06;17.90;99.90
285;DHT22;127;48.770;9.212;2023-05-10T14:38:40;18.00;99.90
285;DHT22;127;48.770;9.212;2023-05-10T14:41:15;17.70;99.90
285;DHT22;127;48.770;9.212;2023-05-10T14:43:44;17.50;99.90
285;DHT22;127;48.770;9.212;2023-05-10T14:46:13;17.80;99.90
285;DHT22;127;48.770;9.212;2023-05-10T14:48:46;18.20;99.90
285;DHT22;127;48.770;9.212;2023-05-10T14:51:17;18.20;99.90
285;DHT22;127;48.770;9.212;2023-05-10T14:54:08;18.40;99.90
285;DHT22;127;48.770;9.212;2023-05-10T14:56:37;18.50;99.90
285;DHT22;127;48.770;9.212;2023-05-10T14:59:08;18.40;99.90
285;DHT22;127;48.770;9.212;2023-05-10T15:01:38;18.10;99.90
285;DHT22;127;48.770;9.212;2023-05-10T15:04:18;17.50;99.90
285;DHT22;127;48.770;9.212;2023-05-10T15:06:48;17.70;99.90
285;DHT22;127;48.770;9.212;2023-05-10T15:09:22;18.00;99.90
285;DHT22;127;48.770;9.212;2023-05-10T15:11:53;18.20;99.90
285;DHT22;127;48.770;9.212;2023-05-10T15:14:23;18.10;99.90
285;DHT22;127;48.770;9.212;2023-05-10T15:16:56;18.30;99.90
285;DHT22;127;48.770;9.212;2023-05-10T15:19:53;18.40;99.90
285;DHT22;127;48.770;9.212;2023-05-10T15:22:25;18.40;99.90
285;DHT22;127;48.770;9.212;2023-05-10T15:28:22;18.30;99.90
285;DHT22;127;48.770;9.212;2023-05-10T15:30:51;18.30;99.90
285;DHT22;127;48.770;9.212;2023-05-10T15:33:21;18.30;99.90
285;DHT22;127;48.770;9.212;2023-05-10T15:35:52;18.10;99.90
285;DHT22;127;48.770;9.212;2023-05-10T15:38:23;17.90;99.90
285;DHT22;127;48.770;9.212;2023-05-10T15:40:56;18.00;99.90
285;DHT22;127;48.770;9.212;2023-05-10T15:43:25;18.20;99.90
285;DHT22;127;48.770;9.212;2023-05-10T15:45:55;18.30;99.90
285;DHT22;127;48.770;9.212;2023-05-10T15:48:24;18.40;99.90
285;DHT22;127;48.770;9.212;2023-05-10T15:50:59;18.40;99.90
285;DHT22;127;48.770;9.212;2023-05-10T15:53:28;18.30;99.90
285;DHT22;127;48.770;9.212;2023-05-10T15:56:03;17.90;99.90
285;DHT22;127;48.770;9.212;2023-05-10T15:58:47;17.60;99.90
285;DHT22;127;48.770;9.212;2023-05-10T16:01:16;17.70;99.90
285;DHT22;127;48.770;9.212;2023-05-10T16:03:45;17.80;99.90
285;DHT22;127;48.770;9.212;2023-05-10T16:06:17;17.60;99.90
285;DHT22;127;48.770;9.212;2023-05-10T16:08:46;17.70;99.90
285;DHT22;127;48.770;9.212;2023-05-10T16:11:15;17.60;99.90
285;DHT22;127;48.770;9.212;2023-05-10T16:14:10;17.20;99.90
285;DHT22;127;48.770;9.212;2023-05-10T16:16:49;17.40;99.90
285;DHT22;127;48.770;9.212;2023-05-10T16:22:44;17.40;99.90
285;DHT22;127;48.770;9.212;2023-05-10T16:25:17;17.40;99.90
285;DHT22;127;48.770;9.212;2023-05-10T16:28:06;17.30;99.90
285;DHT22;127;48.770;9.212;2023-05-10T16:30:38;17.20;99.90
285;DHT22;127;48.770;9.212;2023-05-10T16:33:27;17.40;99.90
285;DHT22;127;48.770;9.212;2023-05-10T16:36:07;17.30;99.90
285;DHT22;127;48.770;9.212;2023-05-10T16:38:52;17.30;99.90
285;DHT22;127;48.770;9.212;2023-05-10T16:41:25;17.10;99.90
285;DHT22;127;48.770;9.212;2023-05-10T16:43:54;17.10;99.90
285;DHT22;127;48.770;9.212;2023-05-10T16:46:32;17.20;99.90
285;DHT22;127;48.770;9.212;2023-05-10T16:49:10;17.10;99.90
285;DHT22;127;48.770;9.212;2023-05-10T16:51:39;17.00;99.90
285;DHT22;127;48.770;9.212;2023-05-10T16:54:13;17.00;99.90
285;DHT22;127;48.770;9.212;2023-05-10T16:56:42;16.80;99.90
285;DHT22;127;48.770;9.212;2023-05-10T16:59:12;16.80;99.90
285;DHT22;127;48.770;9.212;2023-05-10T17:01:40;16.50;99.90
285;DHT22;127;48.770;9.212;2023-05-10T17:04:11;16.50;99.90
285;DHT22;127;48.770;9.212;2023-05-10T17:06:42;16.20;99.90
285;DHT22;127;48.770;9.212;2023-05-10T17:09:16;16.20;99.90
285;DHT22;127;48.770;9.212;2023-05-10T17:11:48;16.10;99.90
285;DHT22;127;48.770;9.212;2023-05-10T17:14:17;16.10;99.90
285;DHT22;127;48.770;9.212;2023-05-10T17:16:45;15.90;99.90
285;DHT22;127;48.770;9.212;2023-05-10T17:19:17;15.80;99.90
285;DHT22;127;48.770;9.212;2023-05-10T17:21:47;15.80;99.90
285;DHT22;127;48.770;9.212;2023-05-10T17:24:19;15.70;99.90
285;DHT22;127;48.770;9.212;2023-05-10T17:26:47;15.70;99.90
285;DHT22;127;48.770;9.212;2023-05-10T17:29:16;15.70;99.90
285;DHT22;127;48.770;9.212;2023-05-10T17:31:45;15.70;99.90
285;DHT22;127;48.770;9.212;2023-05-10T17:34:14;15.70;99.90
285;DHT22;127;48.770;9.212;2023-05-10T17:36:44;15.80;99.90
285;DHT22;127;48.770;9.212;2023-05-10T17:39:12;15.60;99.90
285;DHT22;127;48.770;9.212;2023-05-10T17:41:44;15.50;99.90
285;DHT22;127;48.770;9.212;2023-05-10T17:44:12;15.20;99.90